sensor_id;sensor_type;location;lat;lon;timestamp;temperature;humidity
21163;DHT22;10739;52.198;20.908;2022-12-07T00:01:25;0.80;99.90
21163;DHT22;10739;52.198;20.908;2022-12-07T00:03:55;0.80;99.90
21163;DHT22;10739;52.198;20.908;2022-12-07T00:06:26;0.90;99.90
21163;DHT22;10739;52.198;20.908;2022-12-07T00:08:52;0.90;99.90
21163;DHT22;10739;52.198;20.908;2022-12-07T00:11:20;0.90;99.90
21163;DHT22;10739;52.198;20.908;2022-12-07T00:13:54;0.90;99.90
21163;DHT22;10739;52.198;20.908;2022-12-07T00:16:24;0.90;99.90
21163;DHT22;10739;52.198;20.908;2022-12-07T00:18:52;1.00;99.90
21163;DHT22;10739;52.198;20.908;2022-12-07T00:21:21;1.00;99.90
21163;DHT22;10739;52.198;20.908;2022-12-07T00:23:53;1.00;99.90
21163;DHT22;10739;52.198;20.908;2022-12-07T00:26:26;1.10;99.90
21163;DHT22;10739;52.198;20.908;2022-12-07T00:29:00;1.10;99.90
21163;DHT22;10739;52.198;20.908;2022-12-07T00:31:33;1.10;99.90
21163;DHT22;10739;52.198;20.908;2022-12-07T00:34:06;1.10;99.90
21163;DHT22;10739;52.198;20.908;2022-12-07T00:36:33;1.10;99.90
21163;DHT22;10739;52.198;20.908;2022-12-07T00:38:59;1.10;99.90
21163;DHT22;10739;52.198;20.908;2022-12-07T00:41:27;1.10;99.90
21163;DHT22;10739;52.198;20.908;2022-12-07T00:43:54;1.20;99.90
21163;DHT22;10739;52.198;20.908;2022-12-07T00:46:21;1.30;99.90
21163;DHT22;10739;52.198;20.908;2022-12-07T00:48:49;1.30;99.90
21163;DHT22;10739;52.198;20.908;2022-12-07T00:51:17;1.30;99.90
21163;DHT22;10739;52.198;20.908;2022-12-07T00:53:45;1.40;99.90
21163;DHT22;10739;52.198;20.908;2022-12-07T00:56:23;1.40;99.90
21163;DHT22;10739;52.198;20.908;2022-12-07T00:59:02;1.40;99.90
21163;DHT22;10739;52.198;20.908;2022-12-07T01:01:31;1.50;99.90
21163;DHT22;10739;52.198;20.908;2022-12-07T01:03:59;1.50;99.90
21163;DHT22;10739;52.198;20.908;2022-12-07T01:06:30;1.50;99.90
21163;DHT22;10739;52.198;20.908;2022-12-07T01:08:57;1.50;99.90
21163;DHT22;10739;52.198;20.908;2022-12-07T01:11:26;1.50;99.90
21163;DHT22;10739;52.198;20.908;2022-12-07T01:13:56;1.50;99.90
21163;DHT22;10739;52.198;20.908;2022-12-07T01:16:25;1.50;99.90
21163;DHT22;10739;52.198;20.908;2022-12-07T01:18:56;1.60;99.90
21163;DHT22;10739;52.198;20.908;2022-12-07T01:21:25;1.60;99.90
21163;DHT22;10739;52.198;20.908;2022-12-07T01:23:54;1.60;99.90
21163;DHT22;10739;52.198;20.908;2022-12-07T01:26:23;1.60;99.90
21163;DHT22;10739;52.198;20.908;2022-12-07T01:28:50;1.60;99.90
21163;DHT22;10739;52.198;20.908;2022-12-07T01:31:19;1.60;99.90
21163;DHT22;10739;52.198;20.908;2022-12-07T01:33:51;1.70;99.90
21163;DHT22;10739;52.198;20.908;2022-12-07T01:36:28;1.70;99.90
21163;DHT22;10739;52.198;20.908;2022-12-07T01:39:04;1.70;99.90
21163;DHT22;10739;52.198;20.908;2022-12-07T01:41:34;1.80;99.90
21163;DHT22;10739;52.198;20.908;2022-12-07T01:47:00;1.80;99.90
21163;DHT22;10739;52.198;20.908;2022-12-07T01:49:45;1.80;99.90
21163;DHT22;10739;52.198;20.908;2022-12-07T01:52:31;1.80;99.90
21163;DHT22;10739;52.198;20.908;2022-12-07T01:55:04;1.80;99.90
21163;DHT22;10739;52.198;20.908;2022-12-07T01:57:37;1.80;99.90
21163;DHT22;10739;52.198;20.908;2022-12-07T02:00:07;1.90;99.90
21163;DHT22;10739;52.198;20.908;2022-12-07T02:02:56;1.90;99.90
21163;DHT22;10739;52.198;20.908;2022-12-07T02:05:30;1.90;99.90
21163;DHT22;10739;52.198;20.908;2022-12-07T02:07:58;1.90;99.90
21163;DHT22;10739;52.198;20.908;2022-12-07T02:10:27;1.90;99.90
21163;DHT22;10739;52.198;20.908;2022-12-07T02:15:41;1.90;99.90
21163;DHT22;10739;52.198;20.908;2022-12-07T02:18:42;1.90;99.90
21163;DHT22;10739;52.198;20.908;2022-12-07T02:30:22;1.80;99.90
21163;DHT22;10739;52.198;20.908;2022-12-07T02:33:12;1.80;99.90
21163;DHT22;10739;52.198;20.908;2022-12-07T02:35:44;1.80;99.90
21163;DHT22;10739;52.198;20.908;2022-12-07T02:41:07;1.80;99.90
21163;DHT22;10739;52.198;20.908;2022-12-07T02:43:47;1.80;99.90
21163;DHT22;10739;52.198;20.908;2022-12-07T02:46:35;1.80;99.90
21163;DHT22;10739;52.198;20.908;2022-12-07T02:49:06;1.80;99.90
21163;DHT22;10739;52.198;20.908;2022-12-07T02:51:39;1.80;99.90
21163;DHT22;10739;52.198;20.908;2022-12-07T02:54:16;1.90;99.90
21163;DHT22;10739;52.198;20.908;2022-12-07T03:19:09;1.60;99.90
21163;DHT22;10739;52.198;20.908;2022-12-07T03:21:44;1.60;99.90
21163;DHT22;10739;52.198;20.908;2022-12-07T03:24:19;1.50;99.90
21163;DHT22;10739;52.198;20.908;2022-12-07T03:26:53;1.50;99.90
21163;DHT22;10739;52.198;20.908;2022-12-07T03:29:33;1.40;99.90
21163;DHT22;10739;52.198;20.908;2022-12-07T03:32:06;1.40;99.90
21163;DHT22;10739;52.198;20.908;2022-12-07T03:34:49;1.30;99.90
21163;DHT22;10739;52.198;20.908;2022-12-07T03:37:34;1.40;99.90
21163;DHT22;10739;52.198;20.908;2022-12-07T03:40:35;1.40;99.90
21163;DHT22;10739;52.198;20.908;2022-12-07T03:43:07;1.30;99.90
21163;DHT22;10739;52.198;20.908;2022-12-07T03:45:44;1.30;99.90
21163;DHT22;10739;52.198;20.908;2022-12-07T03:48:45;1.30;99.90
21163;DHT22;10739;52.198;20.908;2022-12-07T03:54:02;1.30;99.90
21163;DHT22;10739;52.198;20.908;2022-12-07T03:56:41;1.30;99.90
21163;DHT22;10739;52.198;20.908;2022-12-07T03:59:10;1.20;99.90
21163;DHT22;10739;52.198;20.908;2022-12-07T04:01:40;1.20;99.90
21163;DHT22;10739;52.198;20.908;2022-12-07T04:04:08;1.20;99.90
21163;DHT22;10739;52.198;20.908;2022-12-07T04:06:34;1.20;99.90
21163;DHT22;10739;52.198;20.908;2022-12-07T04:09:00;1.20;99.90
21163;DHT22;10739;52.198;20.908;2022-12-07T04:11:27;1.20;99.90
21163;DHT22;10739;52.198;20.908;2022-12-07T04:13:53;1.20;99.90
21163;DHT22;10739;52.198;20.908;2022-12-07T04:16:37;1.10;99.90
21163;DHT22;10739;52.198;20.908;2022-12-07T04:19:03;1.10;99.90
21163;DHT22;10739;52.198;20.908;2022-12-07T04:21:29;1.10;99.90
21163;DHT22;10739;52.198;20.908;2022-12-07T04:23:56;1.00;99.90
21163;DHT22;10739;52.198;20.908;2022-12-07T04:26:22;1.10;99.90
21163;DHT22;10739;52.198;20.908;2022-12-07T04:28:48;1.00;99.90
21163;DHT22;10739;52.198;20.908;2022-12-07T04:31:14;1.00;99.90
21163;DHT22;10739;52.198;20.908;2022-12-07T04:33:40;1.00;99.90
21163;DHT22;10739;52.198;20.908;2022-12-07T04:36:06;1.00;99.90
21163;DHT22;10739;52.198;20.908;2022-12-07T04:38:33;1.00;99.90
21163;DHT22;10739;52.198;20.908;2022-12-07T04:41:05;1.00;99.90
21163;DHT22;10739;52.198;20.908;2022-12-07T04:43:31;1.00;99.90
21163;DHT22;10739;52.198;20.908;2022-12-07T04:45:58;1.00;99.90
21163;DHT22;10739;52.198;20.908;2022-12-07T04:48:24;0.90;99.90
21163;DHT22;10739;52.198;20.908;2022-12-07T04:50:50;0.90;99.90
21163;DHT22;10739;52.198;20.908;2022-12-07T04:53:16;0.90;99.90
21163;DHT22;10739;52.198;20.908;2022-12-07T04:55:43;0.90;99.90
21163;DHT22;10739;52.198;20.908;2022-12-07T04:58:10;0.90;99.90
21163;DHT22;10739;52.198;20.908;2022-12-07T05:00:37;0.90;99.90
21163;DHT22;10739;52.198;20.908;2022-12-07T05:03:03;0.80;99.90
21163;DHT22;10739;52.198;20.908;2022-12-07T05:05:32;0.80;99.90
21163;DHT22;10739;52.198;20.908;2022-12-07T05:07:58;0.80;99.90
21163;DHT22;10739;52.198;20.908;2022-12-07T05:10:24;0.80;99.90
21163;DHT22;10739;52.198;20.908;2022-12-07T05:12:50;0.70;99.90
21163;DHT22;10739;52.198;20.908;2022-12-07T05:15:16;0.70;99.90
21163;DHT22;10739;52.198;20.908;2022-12-07T05:17:43;0.80;99.90
21163;DHT22;10739;52.198;20.908;2022-12-07T05:20:10;0.70;99.90
21163;DHT22;10739;52.198;20.908;2022-12-07T05:22:36;0.70;99.90
21163;DHT22;10739;52.198;20.908;2022-12-07T05:25:03;0.70;99.90
21163;DHT22;10739;52.198;20.908;2022-12-07T05:27:29;0.70;99.90
21163;DHT22;10739;52.198;20.908;2022-12-07T05:29:56;0.70;99.90
21163;DHT22;10739;52.198;20.908;2022-12-07T05:32:22;0.70;99.90
21163;DHT22;10739;52.198;20.908;2022-12-07T05:34:48;0.70;99.90
21163;DHT22;10739;52.198;20.908;2022-12-07T05:37:14;0.70;99.90
21163;DHT22;10739;52.198;20.908;2022-12-07T05:39:40;0.70;99.90
21163;DHT22;10739;52.198;20.908;2022-12-07T05:42:10;0.70;99.90
21163;DHT22;10739;52.198;20.908;2022-12-07T05:44:41;0.70;99.90
21163;DHT22;10739;52.198;20.908;2022-12-07T05:47:12;0.70;99.90
21163;DHT22;10739;52.198;20.908;2022-12-07T05:49:39;0.60;99.90
21163;DHT22;10739;52.198;20.908;2022-12-07T05:52:06;0.60;99.90
21163;DHT22;10739;52.198;20.908;2022-12-07T05:54:33;0.60;99.90
21163;DHT22;10739;52.198;20.908;2022-12-07T05:57:00;0.60;99.90
21163;DHT22;10739;52.198;20.908;2022-12-07T05:59:26;0.60;99.90
21163;DHT22;10739;52.198;20.908;2022-12-07T06:04:21;0.50;99.90
21163;DHT22;10739;52.198;20.908;2022-12-07T06:06:49;0.50;99.90
21163;DHT22;10739;52.198;20.908;2022-12-07T06:09:16;0.50;99.90
21163;DHT22;10739;52.198;20.908;2022-12-07T06:11:44;0.50;99.90
21163;DHT22;10739;52.198;20.908;2022-12-07T06:14:29;0.50;99.90
21163;DHT22;10739;52.198;20.908;2022-12-07T06:16:55;0.40;99.90
21163;DHT22;10739;52.198;20.908;2022-12-07T06:19:21;0.40;99.90
21163;DHT22;10739;52.198;20.908;2022-12-07T06:21:47;0.40;99.90
21163;DHT22;10739;52.198;20.908;2022-12-07T06:24:15;0.40;99.90
21163;DHT22;10739;52.198;20.908;2022-12-07T06:26:42;0.30;99.90
21163;DHT22;10739;52.198;20.908;2022-12-07T06:29:09;0.30;99.90
21163;DHT22;10739;52.198;20.908;2022-12-07T06:31:37;0.30;99.90
21163;DHT22;10739;52.198;20.908;2022-12-07T06:34:06;0.30;99.90
21163;DHT22;10739;52.198;20.908;2022-12-07T06:36:35;0.30;99.90
21163;DHT22;10739;52.198;20.908;2022-12-07T06:39:02;0.30;99.90
21163;DHT22;10739;52.198;20.908;2022-12-07T06:41:29;0.30;99.90
21163;DHT22;10739;52.198;20.908;2022-12-07T06:43:55;0.30;99.90
21163;DHT22;10739;52.198;20.908;2022-12-07T06:46:21;0.30;99.90
21163;DHT22;10739;52.198;20.908;2022-12-07T06:48:48;0.30;99.90
21163;DHT22;10739;52.198;20.908;2022-12-07T06:51:14;0.30;99.90
21163;DHT22;10739;52.198;20.908;2022-12-07T06:53:41;0.30;99.90
21163;DHT22;10739;52.198;20.908;2022-12-07T06:56:07;0.40;99.90
21163;DHT22;10739;52.198;20.908;2022-12-07T06:58:34;0.40;99.90
21163;DHT22;10739;52.198;20.908;2022-12-07T07:01:00;0.40;99.90
21163;DHT22;10739;52.198;20.908;2022-12-07T07:03:26;0.40;99.90
21163;DHT22;10739;52.198;20.908;2022-12-07T07:05:52;0.40;99.90
21163;DHT22;10739;52.198;20.908;2022-12-07T07:08:19;0.40;99.90
21163;DHT22;10739;52.198;20.908;2022-12-07T07:10:45;0.40;99.90
21163;DHT22;10739;52.198;20.908;2022-12-07T07:13:11;0.40;99.90
21163;DHT22;10739;52.198;20.908;2022-12-07T07:15:38;0.40;99.90
21163;DHT22;10739;52.198;20.908;2022-12-07T07:18:05;0.40;99.90
21163;DHT22;10739;52.198;20.908;2022-12-07T07:20:31;0.40;99.90
21163;DHT22;10739;52.198;20.908;2022-12-07T07:22:57;0.40;99.90
21163;DHT22;10739;52.198;20.908;2022-12-07T07:25:23;0.40;99.90
21163;DHT22;10739;52.198;20.908;2022-12-07T07:27:50;0.40;99.90
21163;DHT22;10739;52.198;20.908;2022-12-07T07:30:16;0.50;99.90
21163;DHT22;10739;52.198;20.908;2022-12-07T07:32:42;0.50;99.90
21163;DHT22;10739;52.198;20.908;2022-12-07T07:35:08;0.50;99.90
21163;DHT22;10739;52.198;20.908;2022-12-07T07:37:34;0.50;99.90
21163;DHT22;10739;52.198;20.908;2022-12-07T07:40:00;0.50;99.90
21163;DHT22;10739;52.198;20.908;2022-12-07T07:42:27;0.60;99.90
21163;DHT22;10739;52.198;20.908;2022-12-07T07:44:53;0.60;99.90
21163;DHT22;10739;52.198;20.908;2022-12-07T07:47:19;0.60;99.90
21163;DHT22;10739;52.198;20.908;2022-12-07T07:49:45;0.60;99.90
21163;DHT22;10739;52.198;20.908;2022-12-07T07:52:12;0.70;99.90
21163;DHT22;10739;52.198;20.908;2022-12-07T07:54:38;0.70;99.90
21163;DHT22;10739;52.198;20.908;2022-12-07T07:57:04;0.70;99.90
21163;DHT22;10739;52.198;20.908;2022-12-07T07:59:30;0.70;99.90
21163;DHT22;10739;52.198;20.908;2022-12-07T08:01:56;0.70;99.90
21163;DHT22;10739;52.198;20.908;2022-12-07T08:04:23;0.80;99.90
21163;DHT22;10739;52.198;20.908;2022-12-07T08:06:49;0.80;99.90
21163;DHT22;10739;52.198;20.908;2022-12-07T08:09:15;0.80;99.90
21163;DHT22;10739;52.198;20.908;2022-12-07T08:11:42;0.80;99.90
21163;DHT22;10739;52.198;20.908;2022-12-07T08:14:10;0.80;99.90
21163;DHT22;10739;52.198;20.908;2022-12-07T08:16:37;0.90;99.90
21163;DHT22;10739;52.198;20.908;2022-12-07T08:19:05;0.90;99.90
21163;DHT22;10739;52.198;20.908;2022-12-07T08:21:31;0.90;99.90
21163;DHT22;10739;52.198;20.908;2022-12-07T08:23:57;1.00;99.90
21163;DHT22;10739;52.198;20.908;2022-12-07T08:26:23;1.00;99.90
21163;DHT22;10739;52.198;20.908;2022-12-07T08:28:50;1.10;99.90
21163;DHT22;10739;52.198;20.908;2022-12-07T08:31:18;1.00;99.90
21163;DHT22;10739;52.198;20.908;2022-12-07T08:33:48;1.10;99.90
21163;DHT22;10739;52.198;20.908;2022-12-07T08:36:15;1.10;99.90
21163;DHT22;10739;52.198;20.908;2022-12-07T08:38:42;1.10;99.90
21163;DHT22;10739;52.198;20.908;2022-12-07T08:41:08;1.20;99.90
21163;DHT22;10739;52.198;20.908;2022-12-07T08:43:35;1.20;99.90
21163;DHT22;10739;52.198;20.908;2022-12-07T08:48:54;1.30;99.90
21163;DHT22;10739;52.198;20.908;2022-12-07T08:51:27;1.40;99.90
21163;DHT22;10739;52.198;20.908;2022-12-07T08:53:55;1.40;99.90
21163;DHT22;10739;52.198;20.908;2022-12-07T08:56:24;1.50;99.90
21163;DHT22;10739;52.198;20.908;2022-12-07T08:58:50;1.50;99.90
21163;DHT22;10739;52.198;20.908;2022-12-07T09:01:17;1.60;99.90
21163;DHT22;10739;52.198;20.908;2022-12-07T09:03:43;1.60;99.90
21163;DHT22;10739;52.198;20.908;2022-12-07T09:06:09;1.60;99.90
21163;DHT22;10739;52.198;20.908;2022-12-07T09:08:42;1.60;99.90
21163;DHT22;10739;52.198;20.908;2022-12-07T09:11:12;1.70;99.90
21163;DHT22;10739;52.198;20.908;2022-12-07T09:13:38;1.70;99.90
21163;DHT22;10739;52.198;20.908;2022-12-07T09:16:04;1.70;99.90
21163;DHT22;10739;52.198;20.908;2022-12-07T09:18:31;1.80;99.90
21163;DHT22;10739;52.198;20.908;2022-12-07T09:20:57;1.90;99.90
21163;DHT22;10739;52.198;20.908;2022-12-07T09:23:25;1.90;99.90
21163;DHT22;10739;52.198;20.908;2022-12-07T09:25:51;1.90;99.90
21163;DHT22;10739;52.198;20.908;2022-12-07T09:28:17;2.00;99.90
21163;DHT22;10739;52.198;20.908;2022-12-07T09:30:48;2.00;99.90
21163;DHT22;10739;52.198;20.908;2022-12-07T09:33:14;2.00;99.90
21163;DHT22;10739;52.198;20.908;2022-12-07T09:35:48;2.00;99.90
21163;DHT22;10739;52.198;20.908;2022-12-07T09:38:17;2.00;99.90
21163;DHT22;10739;52.198;20.908;2022-12-07T09:40:45;2.00;99.90
21163;DHT22;10739;52.198;20.908;2022-12-07T09:43:19;2.00;99.90
21163;DHT22;10739;52.198;20.908;2022-12-07T09:45:53;2.10;99.90
21163;DHT22;10739;52.198;20.908;2022-12-07T09:48:25;2.10;99.90
21163;DHT22;10739;52.198;20.908;2022-12-07T09:50:59;2.20;99.90
21163;DHT22;10739;52.198;20.908;2022-12-07T09:53:37;2.20;99.90
21163;DHT22;10739;52.198;20.908;2022-12-07T09:56:04;2.10;99.90
21163;DHT22;10739;52.198;20.908;2022-12-07T09:58:32;2.20;99.90
21163;DHT22;10739;52.198;20.908;2022-12-07T10:03:39;2.20;99.90
21163;DHT22;10739;52.198;20.908;2022-12-07T10:06:11;2.20;99.90
21163;DHT22;10739;52.198;20.908;2022-12-07T10:08:38;2.20;99.90
21163;DHT22;10739;52.198;20.908;2022-12-07T10:11:07;2.20;99.90
21163;DHT22;10739;52.198;20.908;2022-12-07T10:13:41;2.20;99.90
21163;DHT22;10739;52.198;20.908;2022-12-07T10:16:32;2.20;99.90
21163;DHT22;10739;52.198;20.908;2022-12-07T10:24:41;2.30;99.90
21163;DHT22;10739;52.198;20.908;2022-12-07T10:27:30;2.30;99.90
21163;DHT22;10739;52.198;20.908;2022-12-07T10:29:58;2.30;99.90
21163;DHT22;10739;52.198;20.908;2022-12-07T10:32:32;2.20;99.90
21163;DHT22;10739;52.198;20.908;2022-12-07T10:37:52;2.20;99.90
21163;DHT22;10739;52.198;20.908;2022-12-07T10:43:18;2.30;99.90
21163;DHT22;10739;52.198;20.908;2022-12-07T10:46:03;2.40;99.90
21163;DHT22;10739;52.198;20.908;2022-12-07T11:00:30;2.50;99.90
21163;DHT22;10739;52.198;20.908;2022-12-07T11:14:25;2.50;99.90
21163;DHT22;10739;52.198;20.908;2022-12-07T11:17:41;2.50;99.90
21163;DHT22;10739;52.198;20.908;2022-12-07T11:23:40;2.50;99.90
21163;DHT22;10739;52.198;20.908;2022-12-07T11:37:36;2.50;99.90
21163;DHT22;10739;52.198;20.908;2022-12-07T11:43:06;2.50;99.90
21163;DHT22;10739;52.198;20.908;2022-12-07T11:45:42;2.50;99.90
21163;DHT22;10739;52.198;20.908;2022-12-07T11:48:22;2.60;99.90
21163;DHT22;10739;52.198;20.908;2022-12-07T11:50:59;2.50;99.90
21163;DHT22;10739;52.198;20.908;2022-12-07T11:56:23;2.50;99.90
21163;DHT22;10739;52.198;20.908;2022-12-07T11:59:01;2.50;99.90
21163;DHT22;10739;52.198;20.908;2022-12-07T12:01:44;2.50;99.90
21163;DHT22;10739;52.198;20.908;2022-12-07T12:04:32;2.50;99.90
21163;DHT22;10739;52.198;20.908;2022-12-07T12:07:15;2.50;99.90
21163;DHT22;10739;52.198;20.908;2022-12-07T12:09:55;2.40;99.90
21163;DHT22;10739;52.198;20.908;2022-12-07T12:15:30;2.30;99.90
21163;DHT22;10739;52.198;20.908;2022-12-07T12:18:23;2.30;99.90
21163;DHT22;10739;52.198;20.908;2022-12-07T12:20:56;2.30;99.90
21163;DHT22;10739;52.198;20.908;2022-12-07T12:23:50;2.30;99.90
21163;DHT22;10739;52.198;20.908;2022-12-07T12:26:25;2.30;99.90
21163;DHT22;10739;52.198;20.908;2022-12-07T12:28:59;2.30;99.90
21163;DHT22;10739;52.198;20.908;2022-12-07T12:33:59;2.20;99.90
21163;DHT22;10739;52.198;20.908;2022-12-07T12:36:44;2.20;99.90
21163;DHT22;10739;52.198;20.908;2022-12-07T12:46:55;2.20;99.90
21163;DHT22;10739;52.198;20.908;2022-12-07T12:52:00;2.20;99.90
21163;DHT22;10739;52.198;20.908;2022-12-07T12:57:36;2.20;99.90
21163;DHT22;10739;52.198;20.908;2022-12-07T13:00:19;2.20;99.90
21163;DHT22;10739;52.198;20.908;2022-12-07T13:02:58;2.20;99.90
21163;DHT22;10739;52.198;20.908;2022-12-07T13:05:28;2.20;99.90
21163;DHT22;10739;52.198;20.908;2022-12-07T13:10:50;2.20;99.90
21163;DHT22;10739;52.198;20.908;2022-12-07T13:18:41;2.20;99.90
21163;DHT22;10739;52.198;20.908;2022-12-07T13:26:26;2.10;99.90
21163;DHT22;10739;52.198;20.908;2022-12-07T13:29:17;2.10;99.90
21163;DHT22;10739;52.198;20.908;2022-12-07T13:31:52;2.10;99.90
21163;DHT22;10739;52.198;20.908;2022-12-07T13:34:37;2.10;99.90
21163;DHT22;10739;52.198;20.908;2022-12-07T13:37:25;2.00;99.90
21163;DHT22;10739;52.198;20.908;2022-12-07T13:39:59;2.00;99.90
21163;DHT22;10739;52.198;20.908;2022-12-07T13:42:38;1.90;99.90
21163;DHT22;10739;52.198;20.908;2022-12-07T13:45:32;1.90;99.90
21163;DHT22;10739;52.198;20.908;2022-12-07T13:48:28;1.80;99.90
21163;DHT22;10739;52.198;20.908;2022-12-07T13:51:02;1.80;99.90
21163;DHT22;10739;52.198;20.908;2022-12-07T13:53:30;1.80;99.90
21163;DHT22;10739;52.198;20.908;2022-12-07T13:56:00;1.70;99.90
21163;DHT22;10739;52.198;20.908;2022-12-07T13:58:30;1.70;99.90
21163;DHT22;10739;52.198;20.908;2022-12-07T14:00:59;1.70;99.90
21163;DHT22;10739;52.198;20.908;2022-12-07T14:03:32;1.60;99.90
21163;DHT22;10739;52.198;20.908;2022-12-07T14:08:39;1.60;99.90
21163;DHT22;10739;52.198;20.908;2022-12-07T14:11:05;1.50;99.90
21163;DHT22;10739;52.198;20.908;2022-12-07T14:13:59;1.50;99.90
21163;DHT22;10739;52.198;20.908;2022-12-07T14:16:37;1.40;99.90
21163;DHT22;10739;52.198;20.908;2022-12-07T14:19:06;1.40;99.90
21163;DHT22;10739;52.198;20.908;2022-12-07T14:22:19;1.40;99.90
21163;DHT22;10739;52.198;20.908;2022-12-07T14:25:17;1.30;99.90
21163;DHT22;10739;52.198;20.908;2022-12-07T14:27:58;1.30;99.90
21163;DHT22;10739;52.198;20.908;2022-12-07T14:30:28;1.30;99.90
21163;DHT22;10739;52.198;20.908;2022-12-07T14:33:07;1.30;99.90
21163;DHT22;10739;52.198;20.908;2022-12-07T14:35:34;1.30;99.90
21163;DHT22;10739;52.198;20.908;2022-12-07T14:38:02;1.20;99.90
21163;DHT22;10739;52.198;20.908;2022-12-07T14:40:29;1.10;99.90
21163;DHT22;10739;52.198;20.908;2022-12-07T14:43:14;1.10;99.90
21163;DHT22;10739;52.198;20.908;2022-12-07T14:45:42;1.00;99.90
21163;DHT22;10739;52.198;20.908;2022-12-07T14:48:14;1.00;99.90
21163;DHT22;10739;52.198;20.908;2022-12-07T14:50:49;1.00;99.90
21163;DHT22;10739;52.198;20.908;2022-12-07T14:53:19;0.90;99.90
21163;DHT22;10739;52.198;20.908;2022-12-07T14:55:53;0.90;99.90
21163;DHT22;10739;52.198;20.908;2022-12-07T14:58:19;0.90;99.90
21163;DHT22;10739;52.198;20.908;2022-12-07T15:00:46;0.90;99.90
21163;DHT22;10739;52.198;20.908;2022-12-07T15:03:13;0.80;99.90
21163;DHT22;10739;52.198;20.908;2022-12-07T15:05:41;0.80;99.90
21163;DHT22;10739;52.198;20.908;2022-12-07T15:08:14;0.80;99.90
21163;DHT22;10739;52.198;20.908;2022-12-07T15:10:40;0.80;99.90
21163;DHT22;10739;52.198;20.908;2022-12-07T15:13:07;0.80;99.90
21163;DHT22;10739;52.198;20.908;2022-12-07T15:15:53;0.80;99.90
21163;DHT22;10739;52.198;20.908;2022-12-07T15:18:22;0.80;99.90
21163;DHT22;10739;52.198;20.908;2022-12-07T15:20:49;0.90;99.90
21163;DHT22;10739;52.198;20.908;2022-12-07T15:23:18;0.90;99.90
21163;DHT22;10739;52.198;20.908;2022-12-07T15:25:47;0.90;99.90
21163;DHT22;10739;52.198;20.908;2022-12-07T15:28:14;0.90;99.90
21163;DHT22;10739;52.198;20.908;2022-12-07T15:30:42;0.90;99.90
21163;DHT22;10739;52.198;20.908;2022-12-07T15:33:10;0.80;99.90
21163;DHT22;10739;52.198;20.908;2022-12-07T15:35:44;0.90;99.90
21163;DHT22;10739;52.198;20.908;2022-12-07T15:38:12;0.90;99.90
21163;DHT22;10739;52.198;20.908;2022-12-07T15:40:39;1.00;99.90
21163;DHT22;10739;52.198;20.908;2022-12-07T15:43:07;0.90;99.90
21163;DHT22;10739;52.198;20.908;2022-12-07T15:45:55;1.00;99.90
21163;DHT22;10739;52.198;20.908;2022-12-07T15:48:21;1.00;99.90
21163;DHT22;10739;52.198;20.908;2022-12-07T15:50:47;1.10;99.90
21163;DHT22;10739;52.198;20.908;2022-12-07T15:53:13;1.10;99.90
21163;DHT22;10739;52.198;20.908;2022-12-07T15:55:40;1.10;99.90
21163;DHT22;10739;52.198;20.908;2022-12-07T15:58:06;1.20;99.90
21163;DHT22;10739;52.198;20.908;2022-12-07T16:00:33;1.20;99.90
21163;DHT22;10739;52.198;20.908;2022-12-07T16:02:59;1.20;99.90
21163;DHT22;10739;52.198;20.908;2022-12-07T16:05:25;1.30;99.90
21163;DHT22;10739;52.198;20.908;2022-12-07T16:07:52;1.30;99.90
21163;DHT22;10739;52.198;20.908;2022-12-07T16:10:18;1.30;99.90
21163;DHT22;10739;52.198;20.908;2022-12-07T16:12:44;1.30;99.90
21163;DHT22;10739;52.198;20.908;2022-12-07T16:15:10;1.30;99.90
21163;DHT22;10739;52.198;20.908;2022-12-07T16:17:36;1.30;99.90
21163;DHT22;10739;52.198;20.908;2022-12-07T16:20:03;1.30;99.90
21163;DHT22;10739;52.198;20.908;2022-12-07T16:22:30;1.30;99.90
21163;DHT22;10739;52.198;20.908;2022-12-07T16:24:57;1.40;99.90
21163;DHT22;10739;52.198;20.908;2022-12-07T16:27:24;1.40;99.90
21163;DHT22;10739;52.198;20.908;2022-12-07T16:29:51;1.40;99.90
21163;DHT22;10739;52.198;20.908;2022-12-07T16:32:17;1.40;99.90
21163;DHT22;10739;52.198;20.908;2022-12-07T16:34:44;1.40;99.90
21163;DHT22;10739;52.198;20.908;2022-12-07T16:37:10;1.30;99.90
21163;DHT22;10739;52.198;20.908;2022-12-07T16:39:36;1.40;99.90
21163;DHT22;10739;52.198;20.908;2022-12-07T16:42:02;1.40;99.90
21163;DHT22;10739;52.198;20.908;2022-12-07T16:44:29;1.40;99.90
21163;DHT22;10739;52.198;20.908;2022-12-07T16:46:56;1.40;99.90
21163;DHT22;10739;52.198;20.908;2022-12-07T16:49:22;1.40;99.90
21163;DHT22;10739;52.198;20.908;2022-12-07T16:51:50;1.40;99.90
21163;DHT22;10739;52.198;20.908;2022-12-07T16:54:16;1.40;99.90
21163;DHT22;10739;52.198;20.908;2022-12-07T16:56:43;1.40;99.90
21163;DHT22;10739;52.198;20.908;2022-12-07T16:59:09;1.40;99.90
21163;DHT22;10739;52.198;20.908;2022-12-07T17:01:35;1.40;99.90
21163;DHT22;10739;52.198;20.908;2022-12-07T17:04:02;1.40;99.90
21163;DHT22;10739;52.198;20.908;2022-12-07T17:06:30;1.50;99.90
21163;DHT22;10739;52.198;20.908;2022-12-07T17:08:56;1.50;99.90
21163;DHT22;10739;52.198;20.908;2022-12-07T17:11:27;1.50;99.90
21163;DHT22;10739;52.198;20.908;2022-12-07T17:13:57;1.50;99.90
21163;DHT22;10739;52.198;20.908;2022-12-07T17:16:42;1.50;99.90
21163;DHT22;10739;52.198;20.908;2022-12-07T17:19:11;1.50;99.90
21163;DHT22;10739;52.198;20.908;2022-12-07T17:21:40;1.50;99.90
21163;DHT22;10739;52.198;20.908;2022-12-07T17:24:08;1.50;99.90
21163;DHT22;10739;52.198;20.908;2022-12-07T17:26:36;1.50;99.90
21163;DHT22;10739;52.198;20.908;2022-12-07T17:29:05;1.60;99.90
21163;DHT22;10739;52.198;20.908;2022-12-07T17:31:32;1.60;99.90
21163;DHT22;10739;52.198;20.908;2022-12-07T17:33:58;1.60;99.90
21163;DHT22;10739;52.198;20.908;2022-12-07T17:36:28;1.60;99.90
21163;DHT22;10739;52.198;20.908;2022-12-07T17:38:56;1.60;99.90
21163;DHT22;10739;52.198;20.908;2022-12-07T17:41:25;1.60;99.90
21163;DHT22;10739;52.198;20.908;2022-12-07T17:44:13;1.70;99.90
21163;DHT22;10739;52.198;20.908;2022-12-07T17:46:41;1.70;99.90
21163;DHT22;10739;52.198;20.908;2022-12-07T17:49:08;1.70;99.90
21163;DHT22;10739;52.198;20.908;2022-12-07T17:51:35;1.60;99.90
21163;DHT22;10739;52.198;20.908;2022-12-07T17:54:20;1.50;99.90
21163;DHT22;10739;52.198;20.908;2022-12-07T17:56:47;1.40;99.90
21163;DHT22;10739;52.198;20.908;2022-12-07T17:59:14;1.40;99.90
21163;DHT22;10739;52.198;20.908;2022-12-07T18:01:41;1.40;99.90
21163;DHT22;10739;52.198;20.908;2022-12-07T18:04:07;1.40;99.90
21163;DHT22;10739;52.198;20.908;2022-12-07T18:06:34;1.40;99.90
21163;DHT22;10739;52.198;20.908;2022-12-07T18:09:01;1.40;99.90
21163;DHT22;10739;52.198;20.908;2022-12-07T18:11:28;1.40;99.90
21163;DHT22;10739;52.198;20.908;2022-12-07T18:13:55;1.40;99.90